Onde está Alenquer en Portugal?

Alenquer está situado na região Lisboa em Portugal!

Buscar o nome de uma cidade:

Alentem, Alentejo, Alengo, Alenjeh, Alenquer

Aqui você vai encontrar a localização de Alenquer em um mapa.
Para ver como ele atualmente parece, abaixo estão algumas fotos da região, com webcams online.
Você também pode encontrar a distância para as principais cidades da região e de cidades do resto do Portugal.

Todos os lugares do mundo chamado .

new

Onde está Alenquer no mapa?


Webcams perto Alenquer

Benavente > North-East: AIrport, METAR: BENAV 180005Z 36004KT 17/14 Q1015.


Benavente > North-East: AIrport, METAR: BENAV 180005Z 36004KT 17/14 Q1015 - Dia
Actual
Benavente > North-East: AIrport, METAR: BENAV 180005Z 36004KT 17/14 Q1015 - Actual

Lisbon > South: Rua Vasco da Gama.


Lisbon > South: Rua Vasco da Gama - Dia
Actual
Lisbon > South: Rua Vasco da Gama - Actual

Lisbon > North: Ponte Vasco da Gama.


Lisbon > North: Ponte Vasco da Gama - Dia
Actual
Lisbon > North: Ponte Vasco da Gama - Actual

Webcams provided by webcams.travel

Distâncias

Onde está Alenquer em relação a outros lugares?

Top 10 cidades em Lisboa e distância de Alenquer.

Cidade#Populaçãokmmilhas
Lisbon15177983924
Amadora21788563924
Queluz31033983924
Loures4662302918
Rio de Mouro5546954226
Odivelas6546233220
São Domingos de Rana7467174830
Cascais8364365333
Alcabideche9333155031
Póvoa de Santa Iria10289002314

Top 10 cidades em Portugal e distância de Alenquer.

Cidade # Populaçãokmmilhas
Lisbon15177983924
Porto2249630235146
Amadora31788563924
Braga4121393282175
Setúbal51171095836
Coimbra610658013886
Queluz71033983924
Funchal8980411007626
Vila Nova de Gaia970810233145
Loures10662302918